Cusseta, GA

12:55 PM EDT on May 23, 2015 (GMT -0400)
Lawson Army Air Field | | Change Station
CLOSE
Current Station
Airport
Location: Fort Benning,
Elevation: 233 ft
Nearby Weather Stations

Elev 233 ft 32.32 °N, 84.98 °W | Updated 57 minutes ago

Clear
Clear
80 °F
Feels Like 80 °F
N
9
Wind Variable Wind from ENE
Gusts 16 mph

Today
High -- | Low -- °F
--% Chance of Precip.
Yesterday
High -- | Low -- °F
Precip. -- in
6:36 AM 8:35 PM
Waxing Crescent, 31% visible
Pressure 30.33 in
Visibility 10.0 miles
Clouds Clear
Heat Index 80 °F
Dew Point 53 °F
Humidity 39%
Rainfall 0.00 in
Snow Depth Not available.
UV 12 out of 12
Pollen 6.50 out of 12
Air Quality Not available.
Flu Activity Sporadic
METAR KLSF 231558Z AUTO 07008G14KT 10SM CLR 27/12 A3032 RMK AO2 SLP269 T02680119

More Conditions Fewer Conditions

Pressure 30.33 in
Visibility 10.0 miles
Clouds Clear
Heat Index 80 °F
Dew Point 53 °F
Humidity 39%
Rainfall 0.00 in
Snow Depth Not available.
UV 12 out of 12
Pollen 6.50 out of 12
Air Quality Not available.
Flu Activity Sporadic
METAR KLSF 231558Z AUTO 07008G14KT 10SM CLR 27/12 A3032 RMK AO2 SLP269 T02680119

More Conditions Fewer Conditions

10-Day Weather Forecast

Almanac

Astronomy

May. 23, 2015 Rise Set
Actual Time
Civil Twilight
Nautical Twilight
Astronomical Twilight
Moon
Length of Visible Light
Length of Day
Tomorrow will be .
, % of the Moon is Illuminated

Today's Extremes

State Highs State Lows

Community

WunderPhotos

Upload Photos

1,823,516 photos uploaded!

WunderBlogs® & News

Nearby

Air Quality

  Air Quality AQ Index Pollutant
Not available.

Snow Depth

Station Depth Elevation

Earthquake Activity

City Distance Mag. Time & Date
Minimum magnitude displayed is 2.5.

Coastal Water Temperatures

Place Temperature

Stations

Nearby Weather Stations

Station Location Temp. Windchill Dew Point Humidity Wind Precip. Elev Updated Type